createdAt,value
2019-05-06T00:01:24.572Z,61.17
2019-05-06T00:03:54.204Z,56.60
2019-05-06T00:06:23.748Z,60.48
2019-05-06T00:08:54.641Z,60.40
2019-05-06T00:11:25.377Z,65.17
2019-05-06T00:13:54.503Z,61.75
2019-05-06T00:16:23.833Z,63.68
2019-05-06T00:18:54.002Z,65.37
2019-05-06T00:21:24.352Z,63.83
2019-05-06T00:23:54.555Z,63.60
2019-05-06T00:26:25.264Z,67.10
2019-05-06T00:28:55.622Z,58.78
2019-05-06T00:31:25.010Z,50.80
2019-05-06T00:33:54.150Z,44.42
2019-05-06T00:36:23.826Z,46.53
2019-05-06T00:38:54.319Z,45.95
2019-05-06T00:41:24.849Z,45.28
2019-05-06T00:43:54.601Z,42.25
2019-05-06T00:46:24.339Z,45.52
2019-05-06T00:48:54.269Z,43.20
2019-05-06T00:51:24.243Z,39.00
2019-05-06T00:54:04.475Z,39.08
2019-05-06T00:56:33.978Z,42.10
2019-05-06T00:59:03.703Z,45.55
2019-05-06T01:01:34.517Z,45.15
2019-05-06T01:04:04.768Z,41.18
2019-05-06T01:06:34.427Z,39.63
2019-05-06T01:09:06.740Z,41.80
2019-05-06T01:11:35.454Z,43.05
2019-05-06T01:14:11.957Z,51.23
2019-05-06T01:16:40.681Z,53.38
2019-05-06T01:19:09.468Z,53.10
2019-05-06T01:21:38.214Z,53.08
2019-05-06T01:24:07.028Z,55.58
2019-05-06T01:26:35.736Z,48.30
2019-05-06T01:29:04.462Z,46.02
2019-05-06T01:31:42.069Z,49.93
2019-05-06T01:34:04.283Z,55.12
2019-05-06T01:36:34.367Z,52.50
2019-05-06T01:39:16.756Z,48.35
2019-05-06T01:41:50.077Z,48.83
2019-05-06T01:44:19.088Z,53.60
2019-05-06T01:46:47.819Z,51.45
2019-05-06T01:49:16.560Z,53.58
2019-05-06T01:51:45.493Z,61.48
2019-05-06T01:54:14.362Z,55.15
2019-05-06T01:56:44.414Z,53.98
2019-05-06T01:59:13.951Z,55.15
2019-05-06T02:01:56.395Z,48.10
2019-05-06T02:04:14.036Z,56.98
2019-05-06T02:06:43.755Z,53.42
2019-05-06T02:09:15.348Z,54.35
2019-05-06T02:11:45.185Z,48.00
2019-05-06T02:14:14.593Z,51.85
2019-05-06T02:16:43.729Z,47.25
2019-05-06T02:19:14.688Z,47.65
2019-05-06T02:21:47.639Z,54.13
2019-05-06T02:24:24.388Z,49.50
2019-05-06T02:26:54.274Z,46.02
2019-05-06T02:29:25.768Z,50.25
2019-05-06T02:32:16.017Z,51.23
2019-05-06T02:34:47.328Z,50.30
2019-05-06T02:37:17.713Z,49.18
2019-05-06T02:39:46.618Z,46.10
2019-05-06T02:42:15.329Z,45.25
2019-05-06T02:44:44.416Z,53.60
2019-05-06T02:47:17.817Z,45.67
2019-05-06T02:49:49.460Z,51.02
2019-05-06T02:52:19.581Z,50.08
2019-05-06T02:54:48.302Z,48.02
2019-05-06T02:57:17.066Z,46.13
2019-05-06T02:59:45.759Z,44.00
2019-05-06T03:02:14.482Z,45.25
2019-05-06T03:04:43.712Z,42.58
2019-05-06T03:07:14.516Z,44.85
2019-05-06T03:09:44.510Z,48.68
2019-05-06T03:12:13.851Z,41.08
2019-05-06T03:14:43.730Z,39.03
2019-05-06T03:17:14.108Z,40.30
2019-05-06T03:19:45.982Z,47.73
2019-05-06T03:22:34.558Z,43.02
2019-05-06T03:25:07.783Z,49.10
2019-05-06T03:27:36.508Z,48.45
2019-05-06T03:30:07.199Z,44.03
2019-05-06T03:32:41.224Z,45.08
2019-05-06T03:35:25.614Z,48.58
2019-05-06T03:37:37.929Z,51.65
2019-05-06T03:40:06.664Z,47.38
2019-05-06T03:42:35.377Z,45.80
2019-05-06T03:45:08.521Z,47.40
2019-05-06T03:47:38.815Z,46.95
2019-05-06T03:50:07.896Z,41.77
2019-05-06T03:52:36.619Z,41.25
2019-05-06T03:55:05.447Z,40.98
2019-05-06T03:57:36.156Z,39.98
2019-05-06T04:00:07.412Z,34.98
2019-05-06T04:02:39.548Z,33.90
2019-05-06T04:05:07.067Z,39.38
2019-05-06T04:07:36.580Z,39.40
2019-05-06T04:10:07.278Z,42.85
2019-05-06T04:12:37.472Z,50.92
2019-05-06T04:15:08.066Z,56.30
2019-05-06T04:17:38.619Z,61.45
2019-05-06T04:20:12.803Z,50.67
2019-05-06T04:22:44.098Z,63.33
2019-05-06T04:25:34.000Z,58.45
2019-05-06T04:28:04.765Z,55.80
2019-05-06T04:30:33.599Z,52.73
2019-05-06T04:33:03.326Z,50.25
2019-05-06T04:35:33.767Z,45.08
2019-05-06T04:38:03.170Z,41.60
2019-05-06T04:40:33.138Z,40.40
2019-05-06T04:43:03.655Z,33.88
2019-05-06T04:45:33.718Z,29.20
2019-05-06T04:48:05.452Z,24.12
2019-05-06T04:50:34.190Z,26.77
2019-05-06T04:53:04.764Z,30.10
2019-05-06T04:55:34.864Z,21.57
2019-05-06T04:58:06.886Z,22.60
2019-05-06T05:00:37.193Z,24.18
2019-05-06T05:03:06.622Z,159.87
2019-05-06T05:05:35.531Z,28.73
2019-05-06T05:08:04.331Z,19.40
2019-05-06T05:10:43.166Z,19.02
2019-05-06T05:13:12.807Z,21.68
2019-05-06T05:16:02.281Z,20.27
2019-05-06T05:18:32.912Z,22.90
2019-05-06T05:21:02.451Z,15.18
2019-05-06T05:23:31.965Z,13.40
2019-05-06T05:26:02.694Z,10.98
2019-05-06T05:28:32.019Z,13.70
2019-05-06T05:31:03.158Z,18.48
2019-05-06T05:33:32.768Z,11.15
2019-05-06T05:36:02.089Z,14.80
2019-05-06T05:38:32.056Z,17.12
2019-05-06T05:41:03.036Z,13.90
2019-05-06T05:43:39.412Z,12.15
2019-05-06T05:46:07.172Z,13.93
2019-05-06T05:48:37.531Z,11.45
2019-05-06T05:51:06.253Z,17.45
2019-05-06T05:53:34.964Z,9.90
2019-05-06T05:56:03.997Z,13.08
2019-05-06T05:58:33.520Z,15.75
2019-05-06T06:01:04.190Z,9.83
2019-05-06T06:03:32.713Z,18.00
2019-05-06T06:06:03.115Z,14.85
2019-05-06T06:08:32.233Z,12.70
2019-05-06T06:11:12.290Z,9.30
2019-05-06T06:13:43.282Z,9.28
2019-05-06T06:16:18.706Z,8.58
2019-05-06T06:18:49.572Z,8.73
2019-05-06T06:21:34.959Z,15.30
2019-05-06T06:24:08.126Z,9.08
2019-05-06T06:26:36.914Z,13.95
2019-05-06T06:29:05.687Z,9.13
2019-05-06T06:31:35.994Z,12.15
2019-05-06T06:34:06.348Z,9.70
2019-05-06T06:36:39.418Z,9.75
2019-05-06T06:39:12.443Z,13.88
2019-05-06T06:41:42.246Z,8.43
2019-05-06T06:44:13.271Z,9.18
2019-05-06T06:46:42.949Z,8.58
2019-05-06T06:49:12.720Z,7.65
2019-05-06T06:51:42.761Z,6.40
2019-05-06T06:54:12.333Z,7.30
2019-05-06T06:57:08.294Z,8.08
2019-05-06T06:59:37.627Z,7.97
2019-05-06T07:02:07.979Z,7.78
2019-05-06T07:04:38.534Z,7.65
2019-05-06T07:07:07.582Z,6.40
2019-05-06T07:09:36.265Z,6.05
2019-05-06T07:12:05.071Z,9.40
2019-05-06T07:14:36.257Z,6.05
2019-05-06T07:17:04.280Z,5.50
2019-05-06T07:19:37.322Z,9.43
2019-05-06T07:22:06.952Z,6.42
2019-05-06T07:24:35.951Z,4.72
2019-05-06T07:27:18.215Z,13.38
2019-05-06T07:29:48.301Z,6.72
2019-05-06T07:32:17.306Z,10.63
2019-05-06T07:34:46.090Z,7.85
2019-05-06T07:37:14.798Z,5.17
2019-05-06T07:39:43.727Z,4.83
2019-05-06T07:42:14.110Z,4.47
2019-05-06T07:44:47.176Z,6.72
2019-05-06T07:47:26.078Z,8.65
2019-05-06T07:49:54.873Z,8.40
2019-05-06T07:52:23.601Z,9.40
2019-05-06T07:54:53.320Z,9.20
2019-05-06T07:57:23.800Z,7.05
2019-05-06T07:59:52.703Z,6.15
2019-05-06T08:02:22.960Z,11.50
2019-05-06T08:04:53.142Z,14.58
2019-05-06T08:07:22.401Z,5.30
2019-05-06T08:09:52.820Z,8.80
2019-05-06T08:12:22.407Z,11.75
2019-05-06T08:14:52.982Z,6.55
2019-05-06T08:17:27.691Z,5.78
2019-05-06T08:19:58.299Z,6.80
2019-05-06T08:22:46.774Z,5.72
2019-05-06T08:25:15.603Z,4.47
2019-05-06T08:27:44.355Z,5.35
2019-05-06T08:30:13.666Z,3.33
2019-05-06T08:32:42.568Z,4.33
2019-05-06T08:35:13.375Z,3.98
2019-05-06T08:37:43.410Z,7.00
2019-05-06T08:40:12.406Z,5.22
2019-05-06T08:42:42.530Z,5.72
2019-05-06T08:45:12.861Z,4.65
2019-05-06T08:47:42.509Z,6.55
2019-05-06T08:50:13.479Z,3.80
2019-05-06T08:53:04.852Z,5.50
2019-05-06T08:55:42.734Z,9.40
2019-05-06T08:58:13.811Z,5.80
2019-05-06T09:00:43.554Z,3.52
2019-05-06T09:03:14.280Z,8.63
2019-05-06T09:05:44.282Z,4.42
2019-05-06T09:08:13.746Z,2.77
2019-05-06T09:10:42.957Z,3.70
2019-05-06T09:13:12.348Z,9.40
2019-05-06T09:15:42.851Z,4.17
2019-05-06T09:18:12.414Z,4.42
2019-05-06T09:20:43.190Z,5.17
2019-05-06T09:23:12.413Z,4.67
2019-05-06T09:25:42.514Z,4.75
2019-05-06T09:28:13.237Z,2.75
2019-05-06T09:30:46.593Z,7.05
2019-05-06T09:33:18.007Z,5.42
2019-05-06T09:35:46.843Z,5.53
2019-05-06T09:38:15.588Z,10.53
2019-05-06T09:40:44.349Z,4.53
2019-05-06T09:43:13.328Z,3.20
2019-05-06T09:45:42.623Z,3.92
2019-05-06T09:48:22.410Z,3.50
2019-05-06T09:50:53.520Z,3.08
2019-05-06T09:53:23.320Z,3.22
2019-05-06T09:56:13.029Z,4.08
2019-05-06T09:58:43.044Z,4.67
2019-05-06T10:01:13.079Z,4.30
2019-05-06T10:03:42.768Z,7.35
2019-05-06T10:06:13.095Z,5.12
2019-05-06T10:08:42.067Z,4.83
2019-05-06T10:11:10.858Z,4.22
2019-05-06T10:13:39.712Z,4.83
2019-05-06T10:16:08.472Z,2.92
2019-05-06T10:18:37.303Z,3.27
2019-05-06T10:21:06.133Z,2.75
2019-05-06T10:23:34.923Z,4.00
2019-05-06T10:26:04.738Z,3.75
2019-05-06T10:28:41.376Z,5.65
2019-05-06T10:31:12.773Z,4.35
2019-05-06T10:33:43.268Z,4.78
2019-05-06T10:36:12.978Z,4.87
2019-05-06T10:38:53.616Z,3.77
2019-05-06T10:41:27.849Z,4.40
2019-05-06T10:44:27.031Z,8.65
2019-05-06T10:46:55.833Z,5.65
2019-05-06T10:49:24.666Z,4.05
2019-05-06T10:51:58.117Z,8.78
2019-05-06T10:54:26.796Z,3.52
2019-05-06T10:56:57.580Z,4.80
2019-05-06T10:59:26.358Z,3.93
2019-05-06T11:01:56.729Z,4.53
2019-05-06T11:04:25.452Z,4.25
2019-05-06T11:06:54.171Z,3.72
2019-05-06T11:09:22.989Z,5.22
2019-05-06T11:11:51.750Z,3.70
2019-05-06T11:14:22.732Z,3.15
2019-05-06T11:16:50.968Z,4.47
2019-05-06T11:19:22.402Z,3.95
2019-05-06T11:21:53.145Z,3.15
2019-05-06T11:24:23.123Z,4.15
2019-05-06T11:26:54.843Z,5.80
2019-05-06T11:29:25.205Z,3.62
2019-05-06T11:31:55.614Z,6.22
2019-05-06T11:34:44.287Z,4.83
2019-05-06T11:37:17.643Z,5.62
2019-05-06T11:39:46.353Z,3.83
2019-05-06T11:42:28.166Z,7.17
2019-05-06T11:44:45.544Z,5.37
2019-05-06T11:47:14.400Z,5.60
2019-05-06T11:49:44.174Z,4.17
2019-05-06T11:52:13.174Z,6.83
2019-05-06T11:54:42.308Z,3.92
2019-05-06T11:57:12.515Z,6.20
2019-05-06T11:59:43.325Z,4.47
2019-05-06T12:02:13.313Z,5.40
2019-05-06T12:04:42.068Z,6.60
2019-05-06T12:07:12.276Z,6.85
2019-05-06T12:09:42.629Z,6.10
2019-05-06T12:12:12.788Z,6.10
2019-05-06T12:14:43.004Z,6.17
2019-05-06T12:17:12.766Z,8.55
2019-05-06T12:19:43.248Z,7.92
2019-05-06T12:22:12.590Z,6.78
2019-05-06T12:24:43.051Z,7.55
2019-05-06T12:27:13.768Z,7.50
2019-05-06T12:29:42.936Z,5.67
2019-05-06T12:32:16.110Z,7.65
2019-05-06T12:34:44.891Z,5.85
2019-05-06T12:37:15.260Z,10.28
2019-05-06T12:39:45.638Z,5.25
2019-05-06T12:42:16.003Z,7.62
2019-05-06T12:44:46.429Z,6.25
2019-05-06T12:47:16.785Z,11.03
2019-05-06T12:49:45.594Z,5.53
2019-05-06T12:52:14.342Z,5.95
2019-05-06T12:54:43.232Z,6.47
2019-05-06T12:57:12.591Z,8.75
2019-05-06T12:59:42.527Z,5.70
2019-05-06T13:02:13.260Z,8.60
2019-05-06T13:04:51.379Z,5.60
2019-05-06T13:07:13.979Z,5.53
2019-05-06T13:09:45.331Z,5.83
2019-05-06T13:12:14.723Z,4.92
2019-05-06T13:14:43.429Z,4.90
2019-05-06T13:17:15.686Z,6.40
2019-05-06T13:19:44.184Z,4.33
2019-05-06T13:22:14.517Z,7.87
2019-05-06T13:24:43.293Z,9.30
2019-05-06T13:27:13.646Z,13.55
2019-05-06T13:29:42.877Z,8.28
2019-05-06T13:32:13.407Z,5.78
2019-05-06T13:34:42.547Z,5.40
2019-05-06T13:37:12.835Z,6.97
2019-05-06T13:39:43.519Z,9.00
2019-05-06T13:42:13.897Z,40.58
2019-05-06T13:44:42.705Z,18.32
2019-05-06T13:47:13.042Z,8.90
2019-05-06T13:49:46.381Z,4.53
2019-05-06T13:52:15.467Z,8.03
2019-05-06T13:54:44.234Z,5.08
2019-05-06T13:57:13.059Z,25.12
2019-05-06T13:59:44.134Z,11.50
2019-05-06T14:02:16.280Z,7.00
2019-05-06T14:04:45.413Z,7.28
2019-05-06T14:07:14.205Z,5.50
2019-05-06T14:09:43.829Z,7.22
2019-05-06T14:12:12.669Z,5.78
2019-05-06T14:14:43.233Z,8.25
2019-05-06T14:17:12.701Z,5.12
2019-05-06T14:19:42.948Z,10.95
2019-05-06T14:22:12.482Z,5.20
2019-05-06T14:24:46.344Z,5.08
2019-05-06T14:27:16.684Z,5.20
2019-05-06T14:29:53.412Z,8.35
2019-05-06T14:32:23.627Z,5.53
2019-05-06T14:34:54.585Z,6.50
2019-05-06T14:37:23.307Z,6.00
2019-05-06T14:39:59.203Z,4.58
2019-05-06T14:42:24.065Z,5.28
2019-05-06T14:44:52.844Z,4.97
2019-05-06T14:47:25.961Z,6.58
2019-05-06T14:49:54.699Z,4.67
2019-05-06T14:52:23.448Z,4.00
2019-05-06T14:54:53.820Z,12.23
2019-05-06T14:57:23.634Z,7.37
2019-05-06T14:59:55.407Z,4.42
2019-05-06T15:02:26.325Z,6.55
2019-05-06T15:04:54.738Z,4.15
2019-05-06T15:07:23.471Z,3.77
2019-05-06T15:10:07.657Z,6.25
2019-05-06T15:12:23.270Z,6.62
2019-05-06T15:14:52.848Z,4.65
2019-05-06T15:17:22.935Z,6.47
2019-05-06T15:19:52.704Z,3.70
2019-05-06T15:22:22.816Z,7.37
2019-05-06T15:24:53.579Z,6.85
2019-05-06T15:27:22.930Z,3.25
2019-05-06T15:29:54.625Z,5.20
2019-05-06T15:32:25.028Z,5.35
2019-05-06T15:35:13.670Z,7.28
2019-05-06T15:37:44.061Z,4.20
2019-05-06T15:40:13.328Z,5.75
2019-05-06T15:42:42.617Z,6.53
2019-05-06T15:45:12.616Z,5.75
2019-05-06T15:47:42.769Z,4.85
2019-05-06T15:50:12.745Z,5.20
2019-05-06T15:52:43.501Z,6.37
2019-05-06T15:55:12.535Z,6.25
2019-05-06T15:57:43.454Z,8.78
2019-05-06T16:00:13.196Z,5.80
2019-05-06T16:02:42.068Z,9.45
2019-05-06T16:05:13.717Z,5.28
2019-05-06T16:07:43.320Z,5.53
2019-05-06T16:10:13.317Z,7.03
2019-05-06T16:12:44.041Z,5.08
2019-05-06T16:15:13.117Z,5.12
2019-05-06T16:17:42.601Z,8.45
2019-05-06T16:20:12.934Z,4.67
2019-05-06T16:22:44.549Z,9.10
2019-05-06T16:25:16.073Z,5.03
2019-05-06T16:27:46.457Z,7.17
2019-05-06T16:30:17.317Z,6.78
2019-05-06T16:32:46.125Z,8.43
2019-05-06T16:35:15.023Z,11.25
2019-05-06T16:37:43.832Z,11.78
2019-05-06T16:40:12.817Z,6.70
2019-05-06T16:42:45.442Z,7.65
2019-05-06T16:45:19.659Z,7.65
2019-05-06T16:47:49.564Z,6.80
2019-05-06T16:50:19.884Z,9.15
2019-05-06T16:52:48.604Z,10.08
2019-05-06T16:55:19.563Z,8.05
2019-05-06T16:57:52.624Z,6.87
2019-05-06T17:00:23.608Z,7.80
2019-05-06T17:03:00.288Z,8.85
2019-05-06T17:05:33.768Z,6.20
2019-05-06T17:08:03.000Z,7.97
2019-05-06T17:10:32.665Z,10.00
2019-05-06T17:13:02.982Z,9.45
2019-05-06T17:15:32.594Z,12.07
2019-05-06T17:18:03.111Z,9.00
2019-05-06T17:20:32.689Z,7.15
2019-05-06T17:23:02.906Z,6.42
2019-05-06T17:25:33.518Z,10.70
2019-05-06T17:28:04.226Z,8.45
2019-05-06T17:30:34.560Z,10.28
2019-05-06T17:33:22.320Z,11.25
2019-05-06T17:35:52.171Z,8.65
2019-05-06T17:38:22.677Z,13.32
2019-05-06T17:40:52.434Z,12.35
2019-05-06T17:43:22.567Z,11.48
2019-05-06T17:46:01.851Z,11.90
2019-05-06T17:48:34.238Z,9.23
2019-05-06T17:51:16.925Z,10.23
2019-05-06T17:53:52.256Z,9.48
2019-05-06T17:56:22.244Z,9.80
2019-05-06T17:58:53.482Z,8.45
2019-05-06T18:01:32.400Z,11.48
2019-05-06T18:04:02.250Z,11.50
2019-05-06T18:06:33.003Z,6.70
2019-05-06T18:09:02.536Z,10.65
2019-05-06T18:11:33.232Z,9.50
2019-05-06T18:14:04.092Z,9.13
2019-05-06T18:16:33.137Z,12.00
2019-05-06T18:19:03.260Z,16.17
2019-05-06T18:21:32.165Z,13.72
2019-05-06T18:24:02.846Z,19.15
2019-05-06T18:26:33.293Z,26.27
2019-05-06T18:29:01.728Z,32.73
2019-05-06T18:31:33.433Z,35.63
2019-05-06T18:34:03.243Z,31.48
2019-05-06T18:36:32.864Z,36.30
2019-05-06T18:39:03.276Z,47.13
2019-05-06T18:41:32.904Z,36.68
2019-05-06T18:44:01.809Z,34.35
2019-05-06T18:46:32.401Z,42.35
2019-05-06T18:49:02.516Z,42.05
2019-05-06T18:51:31.355Z,50.10
2019-05-06T18:54:07.981Z,44.65
2019-05-06T18:56:36.703Z,68.30
2019-05-06T18:59:05.424Z,86.87
2019-05-06T19:01:34.180Z,73.97
2019-05-06T19:04:07.307Z,66.47
2019-05-06T19:06:38.263Z,72.80
2019-05-06T19:09:11.736Z,70.55
2019-05-06T19:11:40.477Z,50.55
2019-05-06T19:14:12.647Z,65.97
2019-05-06T19:16:49.699Z,62.53
2019-05-06T19:19:12.438Z,65.65
2019-05-06T19:21:42.812Z,54.40
2019-05-06T19:24:12.261Z,54.53
2019-05-06T19:26:42.998Z,56.98
2019-05-06T19:29:12.267Z,56.10
2019-05-06T19:31:45.008Z,55.00
2019-05-06T19:34:14.635Z,54.20
2019-05-06T19:36:43.369Z,55.63
2019-05-06T19:39:12.663Z,54.95
2019-05-06T19:41:41.622Z,62.55
2019-05-06T19:44:12.735Z,54.63
2019-05-06T19:46:42.403Z,55.85
2019-05-06T19:49:11.322Z,57.90
2019-05-06T19:51:40.200Z,56.20
2019-05-06T19:54:08.895Z,60.43
2019-05-06T19:56:37.616Z,51.80
2019-05-06T19:59:06.364Z,59.88
2019-05-06T20:01:35.176Z,51.42
2019-05-06T20:04:04.103Z,50.33
2019-05-06T20:06:39.906Z,53.13
2019-05-06T20:09:25.694Z,43.40
2019-05-06T20:12:02.777Z,51.85
2019-05-06T20:14:29.592Z,52.35
2019-05-06T20:16:58.438Z,46.35
2019-05-06T20:19:31.190Z,44.83
2019-05-06T20:21:58.880Z,48.15
2019-05-06T20:24:27.650Z,53.25
2019-05-06T20:26:58.024Z,60.48
2019-05-06T20:29:26.773Z,56.37
2019-05-06T20:31:55.611Z,66.42
2019-05-06T20:34:26.445Z,43.30
2019-05-06T20:36:55.234Z,51.70
2019-05-06T20:39:23.936Z,53.90
2019-05-06T20:41:52.672Z,99.72
2019-05-06T20:44:23.019Z,76.35
2019-05-06T20:46:52.695Z,56.30
2019-05-06T20:49:21.767Z,52.88
2019-05-06T20:51:52.155Z,49.70
2019-05-06T20:54:23.541Z,37.85
2019-05-06T20:56:53.086Z,46.92
2019-05-06T20:59:22.912Z,43.90
2019-05-06T21:01:51.848Z,45.92
2019-05-06T21:04:22.677Z,40.85
2019-05-06T21:06:50.963Z,37.17
2019-05-06T21:09:19.720Z,32.23
2019-05-06T21:11:48.517Z,33.25
2019-05-06T21:14:17.259Z,33.10
2019-05-06T21:16:48.096Z,33.63
2019-05-06T21:19:16.348Z,25.97
2019-05-06T21:21:48.188Z,30.17
2019-05-06T21:26:46.444Z,18.95
2019-05-06T21:29:15.292Z,17.80
2019-05-06T21:31:44.199Z,20.43
2019-05-06T21:34:15.232Z,16.80
2019-05-06T21:36:44.027Z,12.13
2019-05-06T21:39:13.171Z,13.48
2019-05-06T21:41:42.779Z,10.95
2019-05-06T21:44:13.243Z,8.98
2019-05-06T21:46:42.937Z,10.82
2019-05-06T21:49:12.276Z,12.65
2019-05-06T21:51:42.553Z,11.38
2019-05-06T21:54:12.652Z,12.98
2019-05-06T21:56:42.473Z,10.20
2019-05-06T21:59:12.949Z,8.18
2019-05-06T22:01:43.082Z,11.88
2019-05-06T22:04:12.856Z,9.93
2019-05-06T22:06:42.856Z,7.70
2019-05-06T22:09:12.644Z,10.08
2019-05-06T22:11:42.380Z,8.43
2019-05-06T22:14:12.258Z,7.42
2019-05-06T22:16:43.526Z,10.80
2019-05-06T22:19:12.219Z,5.83
2019-05-06T22:22:03.190Z,8.53
2019-05-06T22:24:55.235Z,8.45
2019-05-06T22:27:21.965Z,7.70
2019-05-06T22:29:52.211Z,5.83
2019-05-06T22:32:23.117Z,6.17
2019-05-06T22:34:51.467Z,6.40
2019-05-06T22:37:21.986Z,7.22
2019-05-06T22:39:52.585Z,7.30
2019-05-06T22:42:22.642Z,5.90
2019-05-06T22:44:51.426Z,7.42
2019-05-06T22:47:20.189Z,6.42
2019-05-06T22:49:53.876Z,6.85
2019-05-06T22:52:19.420Z,5.62
2019-05-06T22:54:48.265Z,5.65
2019-05-06T22:57:16.987Z,5.70
2019-05-06T22:59:45.767Z,7.20
2019-05-06T23:02:19.195Z,5.37
2019-05-06T23:04:53.060Z,6.22
2019-05-06T23:07:24.657Z,7.50
2019-05-06T23:09:53.403Z,6.15
2019-05-06T23:12:23.139Z,9.70
2019-05-06T23:14:52.783Z,5.42
2019-05-06T23:17:21.915Z,6.97
2019-05-06T23:19:52.726Z,7.03
2019-05-06T23:22:22.649Z,5.85
2019-05-06T23:24:52.233Z,6.08
2019-05-06T23:27:23.270Z,5.95
2019-05-06T23:29:52.662Z,5.42
2019-05-06T23:32:22.914Z,8.20
2019-05-06T23:34:52.352Z,6.17
2019-05-06T23:37:22.498Z,6.53
2019-05-06T23:40:28.662Z,7.65
2019-05-06T23:43:33.675Z,6.10
2019-05-06T23:46:39.248Z,8.60
2019-05-06T23:49:44.233Z,5.90
2019-05-06T23:52:49.501Z,8.20
2019-05-06T23:55:54.724Z,7.40
2019-05-06T23:58:22.581Z,8.45
